sensor_id;sensor_type;location;lat;lon;timestamp;pressure;altitude;pressure_sealevel;temperature;humidity
10948;BME280;5526;42.070;24.752;2023-03-20T00:00:30;99420.31;;;8.05;80.11
10948;BME280;5526;42.070;24.752;2023-03-20T00:02:59;99424.41;;;8.01;79.52
10948;BME280;5526;42.070;24.752;2023-03-20T00:05:27;99410.16;;;7.97;79.75
10948;BME280;5526;42.070;24.752;2023-03-20T00:07:55;99406.84;;;8.02;80.20
10948;BME280;5526;42.070;24.752;2023-03-20T00:10:33;99412.34;;;8.00;79.90
10948;BME280;5526;42.070;24.752;2023-03-20T00:13:01;99405.38;;;7.94;80.59
10948;BME280;5526;42.070;24.752;2023-03-20T00:15:31;99399.31;;;7.94;80.35
10948;BME280;5526;42.070;24.752;2023-03-20T00:18:02;99396.97;;;7.92;80.51
10948;BME280;5526;42.070;24.752;2023-03-20T00:20:29;99397.41;;;7.89;80.11
10948;BME280;5526;42.070;24.752;2023-03-20T00:22:56;99399.44;;;7.87;80.54
10948;BME280;5526;42.070;24.752;2023-03-20T00:25:24;99383.94;;;7.86;80.74
10948;BME280;5526;42.070;24.752;2023-03-20T00:27:52;99385.19;;;7.83;80.82
10948;BME280;5526;42.070;24.752;2023-03-20T00:30:26;99389.72;;;7.76;80.30
10948;BME280;5526;42.070;24.752;2023-03-20T00:32:55;99382.66;;;7.65;80.29
10948;BME280;5526;42.070;24.752;2023-03-20T00:35:27;99378.34;;;7.71;79.77
10948;BME280;5526;42.070;24.752;2023-03-20T00:37:55;99384.16;;;7.73;79.83
10948;BME280;5526;42.070;24.752;2023-03-20T00:40:27;99378.09;;;7.72;79.15
10948;BME280;5526;42.070;24.752;2023-03-20T00:42:58;99373.13;;;7.71;78.44
10948;BME280;5526;42.070;24.752;2023-03-20T00:45:26;99356.91;;;7.62;78.70
10948;BME280;5526;42.070;24.752;2023-03-20T00:47:55;99370.56;;;7.64;78.71
10948;BME280;5526;42.070;24.752;2023-03-20T00:50:26;99371.06;;;7.61;78.90
10948;BME280;5526;42.070;24.752;2023-03-20T00:52:55;99365.66;;;7.56;79.58
10948;BME280;5526;42.070;24.752;2023-03-20T00:55:25;99369.66;;;7.59;79.27
10948;BME280;5526;42.070;24.752;2023-03-20T00:57:54;99369.53;;;7.54;79.64
10948;BME280;5526;42.070;24.752;2023-03-20T01:00:25;99367.59;;;7.49;79.45
10948;BME280;5526;42.070;24.752;2023-03-20T01:02:54;99369.19;;;7.50;80.80
10948;BME280;5526;42.070;24.752;2023-03-20T01:05:23;99367.03;;;7.47;81.34
10948;BME280;5526;42.070;24.752;2023-03-20T01:07:51;99368.81;;;7.47;81.79
10948;BME280;5526;42.070;24.752;2023-03-20T01:10:18;99370.44;;;7.48;81.76
10948;BME280;5526;42.070;24.752;2023-03-20T01:12:46;99363.25;;;7.43;83.09
10948;BME280;5526;42.070;24.752;2023-03-20T01:15:19;99364.63;;;7.46;83.60
10948;BME280;5526;42.070;24.752;2023-03-20T01:17:47;99367.25;;;7.46;83.62
10948;BME280;5526;42.070;24.752;2023-03-20T01:20:18;99364.84;;;7.44;84.33
10948;BME280;5526;42.070;24.752;2023-03-20T01:22:46;99360.97;;;7.47;84.55
10948;BME280;5526;42.070;24.752;2023-03-20T01:25:15;99356.75;;;7.46;84.17
10948;BME280;5526;42.070;24.752;2023-03-20T01:27:44;99350.16;;;7.43;83.87
10948;BME280;5526;42.070;24.752;2023-03-20T01:30:18;99351.53;;;7.46;84.45
10948;BME280;5526;42.070;24.752;2023-03-20T01:32:46;99340.56;;;7.37;84.73
10948;BME280;5526;42.070;24.752;2023-03-20T01:35:14;99348.09;;;7.45;84.73
10948;BME280;5526;42.070;24.752;2023-03-20T01:37:42;99345.47;;;7.45;84.76
10948;BME280;5526;42.070;24.752;2023-03-20T01:40:18;99350.16;;;7.43;84.93
10948;BME280;5526;42.070;24.752;2023-03-20T01:42:51;99339.09;;;7.30;85.33
10948;BME280;5526;42.070;24.752;2023-03-20T01:45:21;99341.69;;;7.30;86.00
10948;BME280;5526;42.070;24.752;2023-03-20T01:47:51;99338.44;;;7.34;86.54
10948;BME280;5526;42.070;24.752;2023-03-20T01:50:30;99335.22;;;7.32;85.98
10948;BME280;5526;42.070;24.752;2023-03-20T01:53:02;99340.66;;;7.31;85.81
10948;BME280;5526;42.070;24.752;2023-03-20T01:55:33;99333.28;;;7.28;85.63
10948;BME280;5526;42.070;24.752;2023-03-20T01:58:03;99332.91;;;7.24;85.78
10948;BME280;5526;42.070;24.752;2023-03-20T02:00:32;99343.50;;;7.29;86.53
10948;BME280;5526;42.070;24.752;2023-03-20T02:02:59;99342.34;;;7.25;86.13
10948;BME280;5526;42.070;24.752;2023-03-20T02:05:27;99335.84;;;7.16;85.92
10948;BME280;5526;42.070;24.752;2023-03-20T02:08:00;99347.22;;;7.10;86.41
10948;BME280;5526;42.070;24.752;2023-03-20T02:10:28;99332.06;;;7.01;86.15
10948;BME280;5526;42.070;24.752;2023-03-20T02:12:57;99347.28;;;7.04;86.00
10948;BME280;5526;42.070;24.752;2023-03-20T02:15:26;99340.91;;;7.00;86.36
10948;BME280;5526;42.070;24.752;2023-03-20T02:17:53;99340.91;;;7.00;86.21
10948;BME280;5526;42.070;24.752;2023-03-20T02:20:27;99340.34;;;6.98;85.50
10948;BME280;5526;42.070;24.752;2023-03-20T02:23:20;99341.69;;;6.89;86.81
10948;BME280;5526;42.070;24.752;2023-03-20T02:26:10;99337.44;;;6.88;86.56
10948;BME280;5526;42.070;24.752;2023-03-20T02:29:06;99334.50;;;6.84;87.37
10948;BME280;5526;42.070;24.752;2023-03-20T02:35:12;99316.66;;;6.63;88.59
10948;BME280;5526;42.070;24.752;2023-03-20T02:38:05;99324.75;;;6.73;88.02
10948;BME280;5526;42.070;24.752;2023-03-20T02:40:42;99324.97;;;6.72;88.19
10948;BME280;5526;42.070;24.752;2023-03-20T02:43:15;99325.56;;;6.74;88.27
10948;BME280;5526;42.070;24.752;2023-03-20T02:45:48;99324.75;;;6.73;87.59
10948;BME280;5526;42.070;24.752;2023-03-20T02:48:26;99323.03;;;6.67;88.45
10948;BME280;5526;42.070;24.752;2023-03-20T02:51:01;99319.84;;;6.65;88.61
10948;BME280;5526;42.070;24.752;2023-03-20T02:53:37;99313.03;;;6.64;88.54
10948;BME280;5526;42.070;24.752;2023-03-20T02:56:11;99325.50;;;6.62;88.25
10948;BME280;5526;42.070;24.752;2023-03-20T02:58:46;99314.78;;;6.52;88.54
10948;BME280;5526;42.070;24.752;2023-03-20T03:01:18;99311.94;;;6.54;88.64
10948;BME280;5526;42.070;24.752;2023-03-20T03:03:49;99316.94;;;6.55;88.67
10948;BME280;5526;42.070;24.752;2023-03-20T03:06:21;99317.75;;;6.56;88.10
10948;BME280;5526;42.070;24.752;2023-03-20T03:08:55;99308.38;;;6.48;88.31
10948;BME280;5526;42.070;24.752;2023-03-20T03:11:24;99311.78;;;6.49;88.19
10948;BME280;5526;42.070;24.752;2023-03-20T03:13:53;99313.03;;;6.46;88.42
10948;BME280;5526;42.070;24.752;2023-03-20T03:16:26;99317.69;;;6.44;88.71
10948;BME280;5526;42.070;24.752;2023-03-20T03:19:01;99306.72;;;6.36;88.65
10948;BME280;5526;42.070;24.752;2023-03-20T03:21:29;99312.28;;;6.39;88.34
10948;BME280;5526;42.070;24.752;2023-03-20T03:23:59;99309.13;;;6.37;88.07
10948;BME280;5526;42.070;24.752;2023-03-20T03:26:30;99311.59;;;6.32;87.81
10948;BME280;5526;42.070;24.752;2023-03-20T03:29:01;99310.78;;;6.32;87.58
10948;BME280;5526;42.070;24.752;2023-03-20T03:31:30;99311.22;;;6.29;87.31
10948;BME280;5526;42.070;24.752;2023-03-20T03:33:59;99298.09;;;6.17;87.52
10948;BME280;5526;42.070;24.752;2023-03-20T03:36:36;99307.09;;;6.21;87.36
10948;BME280;5526;42.070;24.752;2023-03-20T03:39:13;99302.44;;;6.23;87.32
10948;BME280;5526;42.070;24.752;2023-03-20T03:41:46;99308.69;;;6.22;87.19
10948;BME280;5526;42.070;24.752;2023-03-20T03:44:20;99313.09;;;6.22;86.85
10948;BME280;5526;42.070;24.752;2023-03-20T03:46:51;99313.09;;;6.22;87.11
10948;BME280;5526;42.070;24.752;2023-03-20T03:49:21;99305.94;;;6.17;86.57
10948;BME280;5526;42.070;24.752;2023-03-20T03:51:52;99308.09;;;6.20;86.50
10948;BME280;5526;42.070;24.752;2023-03-20T03:54:24;99318.56;;;6.20;86.38
10948;BME280;5526;42.070;24.752;2023-03-20T03:56:53;99308.63;;;6.11;86.67
10948;BME280;5526;42.070;24.752;2023-03-20T03:59:25;99308.50;;;5.99;88.15
10948;BME280;5526;42.070;24.752;2023-03-20T04:01:55;99309.25;;;6.06;87.67
10948;BME280;5526;42.070;24.752;2023-03-20T04:04:24;99315.50;;;6.05;87.66
10948;BME280;5526;42.070;24.752;2023-03-20T04:06:52;99317.94;;;6.00;88.27
10948;BME280;5526;42.070;24.752;2023-03-20T04:09:19;99317.78;;;5.95;88.32
10948;BME280;5526;42.070;24.752;2023-03-20T04:11:50;99317.72;;;6.02;88.22
10948;BME280;5526;42.070;24.752;2023-03-20T04:14:18;99314.34;;;6.01;88.15
10948;BME280;5526;42.070;24.752;2023-03-20T04:16:45;99316.72;;;6.03;87.93
10948;BME280;5526;42.070;24.752;2023-03-20T04:19:12;99316.28;;;6.06;88.24
10948;BME280;5526;42.070;24.752;2023-03-20T04:21:40;99310.41;;;6.10;87.61
10948;BME280;5526;42.070;24.752;2023-03-20T04:24:07;99309.78;;;6.15;87.88
10948;BME280;5526;42.070;24.752;2023-03-20T04:26:35;99318.56;;;6.20;88.30
10948;BME280;5526;42.070;24.752;2023-03-20T04:29:03;99313.34;;;6.20;87.95
10948;BME280;5526;42.070;24.752;2023-03-20T04:31:30;99305.72;;;6.19;87.73
10948;BME280;5526;42.070;24.752;2023-03-20T04:33:57;99309.50;;;6.23;87.17
10948;BME280;5526;42.070;24.752;2023-03-20T04:36:24;99307.72;;;6.17;86.92
10948;BME280;5526;42.070;24.752;2023-03-20T04:38:51;99309.31;;;6.18;87.28
10948;BME280;5526;42.070;24.752;2023-03-20T04:41:18;99310.94;;;6.19;87.43
10948;BME280;5526;42.070;24.752;2023-03-20T04:43:45;99308.47;;;6.24;87.25
10948;BME280;5526;42.070;24.752;2023-03-20T04:46:14;99310.88;;;6.25;86.97
10948;BME280;5526;42.070;24.752;2023-03-20T04:48:41;99315.78;;;6.33;87.38
10948;BME280;5526;42.070;24.752;2023-03-20T04:51:08;99319.19;;;6.34;87.51
10948;BME280;5526;42.070;24.752;2023-03-20T04:53:35;99316.00;;;6.32;87.34
10948;BME280;5526;42.070;24.752;2023-03-20T04:56:02;99323.78;;;6.38;86.92
10948;BME280;5526;42.070;24.752;2023-03-20T04:58:28;99326.00;;;6.53;87.24
10948;BME280;5526;42.070;24.752;2023-03-20T05:00:55;99324.94;;;6.60;86.57
10948;BME280;5526;42.070;24.752;2023-03-20T05:03:24;99323.19;;;6.72;85.73
10948;BME280;5526;42.070;24.752;2023-03-20T05:05:52;99324.91;;;6.78;86.35
10948;BME280;5526;42.070;24.752;2023-03-20T05:08:19;99326.13;;;6.94;85.80
10948;BME280;5526;42.070;24.752;2023-03-20T05:10:46;99322.28;;;7.08;85.52
10948;BME280;5526;42.070;24.752;2023-03-20T05:13:13;99327.97;;;7.05;86.01
10948;BME280;5526;42.070;24.752;2023-03-20T05:15:40;99326.63;;;7.14;85.81
10948;BME280;5526;42.070;24.752;2023-03-20T05:18:07;99328.56;;;7.94;83.35
10948;BME280;5526;42.070;24.752;2023-03-20T05:20:35;99339.94;;;7.76;83.18
10948;BME280;5526;42.070;24.752;2023-03-20T05:23:02;99332.22;;;7.58;84.23
10948;BME280;5526;42.070;24.752;2023-03-20T05:25:29;99331.06;;;7.66;85.35
10948;BME280;5526;42.070;24.752;2023-03-20T05:27:56;99322.41;;;7.88;84.46
10948;BME280;5526;42.070;24.752;2023-03-20T05:30:23;99321.28;;;7.96;83.56
10948;BME280;5526;42.070;24.752;2023-03-20T05:32:50;99324.38;;;7.93;83.69
10948;BME280;5526;42.070;24.752;2023-03-20T05:35:18;99325.72;;;7.95;83.67
10948;BME280;5526;42.070;24.752;2023-03-20T05:37:46;99325.38;;;8.03;83.95
10948;BME280;5526;42.070;24.752;2023-03-20T05:40:14;99322.78;;;7.92;83.95
10948;BME280;5526;42.070;24.752;2023-03-20T05:42:43;99328.47;;;8.00;83.73
10948;BME280;5526;42.070;24.752;2023-03-20T05:45:11;99320.97;;;7.92;84.35
10948;BME280;5526;42.070;24.752;2023-03-20T05:47:40;99325.63;;;8.13;84.14
10948;BME280;5526;42.070;24.752;2023-03-20T05:50:08;99330.06;;;8.36;82.77
10948;BME280;5526;42.070;24.752;2023-03-20T05:52:35;99320.47;;;8.41;82.49
10948;BME280;5526;42.070;24.752;2023-03-20T05:55:04;99324.72;;;8.70;82.28
10948;BME280;5526;42.070;24.752;2023-03-20T05:57:31;99331.06;;;8.86;81.54
10948;BME280;5526;42.070;24.752;2023-03-20T05:59:58;99325.81;;;8.86;82.11
10948;BME280;5526;42.070;24.752;2023-03-20T06:02:25;99323.81;;;9.05;81.32
10948;BME280;5526;42.070;24.752;2023-03-20T06:04:52;99329.34;;;9.20;80.39
10948;BME280;5526;42.070;24.752;2023-03-20T06:07:19;99319.25;;;9.28;79.50
10948;BME280;5526;42.070;24.752;2023-03-20T06:09:46;99320.44;;;9.37;79.22
10948;BME280;5526;42.070;24.752;2023-03-20T06:12:15;99326.81;;;9.41;78.28
10948;BME280;5526;42.070;24.752;2023-03-20T06:14:42;99332.66;;;8.87;81.03
10948;BME280;5526;42.070;24.752;2023-03-20T06:17:09;99332.34;;;9.12;80.22
10948;BME280;5526;42.070;24.752;2023-03-20T06:19:36;99331.38;;;9.18;80.01
10948;BME280;5526;42.070;24.752;2023-03-20T06:22:04;99326.13;;;9.46;79.01
10948;BME280;5526;42.070;24.752;2023-03-20T06:24:31;99331.13;;;9.64;78.36
10948;BME280;5526;42.070;24.752;2023-03-20T06:26:59;99338.53;;;9.67;78.75
10948;BME280;5526;42.070;24.752;2023-03-20T06:29:28;99330.88;;;9.98;78.09
10948;BME280;5526;42.070;24.752;2023-03-20T06:31:55;99331.53;;;10.43;76.08
10948;BME280;5526;42.070;24.752;2023-03-20T06:34:22;99325.09;;;10.34;75.63
10948;BME280;5526;42.070;24.752;2023-03-20T06:36:49;99324.91;;;10.41;76.04
10948;BME280;5526;42.070;24.752;2023-03-20T06:39:16;99328.34;;;10.63;75.84
10948;BME280;5526;42.070;24.752;2023-03-20T06:41:43;99320.91;;;11.03;73.70
10948;BME280;5526;42.070;24.752;2023-03-20T06:44:10;99327.03;;;11.08;73.50
10948;BME280;5526;42.070;24.752;2023-03-20T06:46:38;99324.47;;;11.18;72.67
10948;BME280;5526;42.070;24.752;2023-03-20T06:49:05;99326.06;;;11.46;72.09
10948;BME280;5526;42.070;24.752;2023-03-20T06:51:32;99326.19;;;11.34;71.79
10948;BME280;5526;42.070;24.752;2023-03-20T06:53:59;99332.78;;;11.32;71.77
10948;BME280;5526;42.070;24.752;2023-03-20T06:56:26;99323.94;;;11.48;71.43
10948;BME280;5526;42.070;24.752;2023-03-20T06:58:53;99330.25;;;11.73;70.42
10948;BME280;5526;42.070;24.752;2023-03-20T07:01:20;99321.59;;;11.78;70.56
10948;BME280;5526;42.070;24.752;2023-03-20T07:03:49;99319.91;;;11.98;69.11
10948;BME280;5526;42.070;24.752;2023-03-20T07:06:16;99319.19;;;12.13;68.60
10948;BME280;5526;42.070;24.752;2023-03-20T07:08:44;99323.38;;;12.09;69.19
10948;BME280;5526;42.070;24.752;2023-03-20T07:11:11;99323.34;;;12.50;67.78
10948;BME280;5526;42.070;24.752;2023-03-20T07:13:38;99323.53;;;12.95;66.27
10948;BME280;5526;42.070;24.752;2023-03-20T07:16:07;99325.72;;;13.29;64.74
10948;BME280;5526;42.070;24.752;2023-03-20T07:18:34;99320.69;;;13.27;63.26
10948;BME280;5526;42.070;24.752;2023-03-20T07:21:04;99330.16;;;13.03;62.80
10948;BME280;5526;42.070;24.752;2023-03-20T07:23:33;99326.78;;;13.33;62.22
10948;BME280;5526;42.070;24.752;2023-03-20T07:26:01;99316.47;;;13.46;62.21
10948;BME280;5526;42.070;24.752;2023-03-20T07:28:28;99314.63;;;13.62;61.50
10948;BME280;5526;42.070;24.752;2023-03-20T07:30:55;99311.72;;;13.68;60.46
10948;BME280;5526;42.070;24.752;2023-03-20T07:33:22;99311.47;;;13.75;59.86
10948;BME280;5526;42.070;24.752;2023-03-20T07:35:51;99317.00;;;13.63;58.14
10948;BME280;5526;42.070;24.752;2023-03-20T07:38:20;99304.53;;;13.89;57.92
10948;BME280;5526;42.070;24.752;2023-03-20T07:40:47;99295.31;;;13.66;57.36
10948;BME280;5526;42.070;24.752;2023-03-20T07:43:14;99308.53;;;13.81;56.83
10948;BME280;5526;42.070;24.752;2023-03-20T07:45:41;99304.31;;;13.80;56.77
10948;BME280;5526;42.070;24.752;2023-03-20T07:48:08;99304.59;;;13.64;56.99
10948;BME280;5526;42.070;24.752;2023-03-20T07:50:36;99305.91;;;13.66;55.73
10948;BME280;5526;42.070;24.752;2023-03-20T07:53:03;99306.16;;;13.80;55.19
10948;BME280;5526;42.070;24.752;2023-03-20T07:55:31;99305.84;;;14.01;54.95
10948;BME280;5526;42.070;24.752;2023-03-20T07:57:58;99295.53;;;14.10;54.08
10948;BME280;5526;42.070;24.752;2023-03-20T08:00:25;99300.78;;;14.35;53.12
10948;BME280;5526;42.070;24.752;2023-03-20T08:02:52;99303.59;;;14.58;52.82
10948;BME280;5526;42.070;24.752;2023-03-20T08:05:21;99294.81;;;14.63;51.67
10948;BME280;5526;42.070;24.752;2023-03-20T08:07:48;99302.81;;;14.58;51.66
10948;BME280;5526;42.070;24.752;2023-03-20T08:10:15;99301.06;;;14.92;50.82
10948;BME280;5526;42.070;24.752;2023-03-20T08:12:44;99291.22;;;14.92;50.55
10948;BME280;5526;42.070;24.752;2023-03-20T08:15:11;99294.31;;;15.09;50.41
10948;BME280;5526;42.070;24.752;2023-03-20T08:17:41;99298.78;;;15.14;49.45
10948;BME280;5526;42.070;24.752;2023-03-20T08:20:10;99287.31;;;15.23;50.19
10948;BME280;5526;42.070;24.752;2023-03-20T08:22:37;99293.19;;;15.20;49.66
10948;BME280;5526;42.070;24.752;2023-03-20T08:25:05;99293.78;;;15.07;50.38
10948;BME280;5526;42.070;24.752;2023-03-20T08:27:32;99298.84;;;15.47;49.66
10948;BME280;5526;42.070;24.752;2023-03-20T08:30:01;99289.16;;;14.89;50.35
10948;BME280;5526;42.070;24.752;2023-03-20T08:32:28;99296.66;;;16.35;45.84
10948;BME280;5526;42.070;24.752;2023-03-20T08:34:55;99301.56;;;16.70;44.34
10948;BME280;5526;42.070;24.752;2023-03-20T08:37:22;99297.47;;;15.55;47.23
10948;BME280;5526;42.070;24.752;2023-03-20T08:39:49;99294.16;;;15.68;47.07
10948;BME280;5526;42.070;24.752;2023-03-20T08:42:16;99297.22;;;15.85;47.16
10948;BME280;5526;42.070;24.752;2023-03-20T08:44:43;99287.91;;;16.11;46.79
10948;BME280;5526;42.070;24.752;2023-03-20T08:47:12;99294.22;;;16.43;47.17
10948;BME280;5526;42.070;24.752;2023-03-20T08:49:39;99288.16;;;16.61;45.88
10948;BME280;5526;42.070;24.752;2023-03-20T08:52:06;99284.88;;;16.22;46.20
10948;BME280;5526;42.070;24.752;2023-03-20T08:54:32;99281.56;;;16.07;46.39
10948;BME280;5526;42.070;24.752;2023-03-20T08:56:59;99279.03;;;16.20;46.80
10948;BME280;5526;42.070;24.752;2023-03-20T08:59:27;99270.97;;;16.54;46.06
10948;BME280;5526;42.070;24.752;2023-03-20T09:01:53;99263.31;;;16.89;45.25
10948;BME280;5526;42.070;24.752;2023-03-20T09:04:22;99264.97;;;16.85;44.23
10948;BME280;5526;42.070;24.752;2023-03-20T09:06:49;99256.44;;;16.88;44.65
10948;BME280;5526;42.070;24.752;2023-03-20T09:09:17;99260.13;;;17.06;45.35
10948;BME280;5526;42.070;24.752;2023-03-20T09:11:46;99247.25;;;17.13;44.52
10948;BME280;5526;42.070;24.752;2023-03-20T09:14:13;99253.63;;;17.31;44.16
10948;BME280;5526;42.070;24.752;2023-03-20T09:16:40;99252.69;;;17.40;44.41
10948;BME280;5526;42.070;24.752;2023-03-20T09:19:07;99254.31;;;17.55;43.92
10948;BME280;5526;42.070;24.752;2023-03-20T09:21:35;99239.28;;;17.64;44.06
10948;BME280;5526;42.070;24.752;2023-03-20T09:24:02;99244.22;;;17.70;43.90
10948;BME280;5526;42.070;24.752;2023-03-20T09:26:29;99247.94;;;17.56;43.66
10948;BME280;5526;42.070;24.752;2023-03-20T09:28:56;99249.25;;;17.40;44.34
10948;BME280;5526;42.070;24.752;2023-03-20T09:31:23;99243.00;;;17.63;43.92
10948;BME280;5526;42.070;24.752;2023-03-20T09:33:50;99240.75;;;17.38;44.53
10948;BME280;5526;42.070;24.752;2023-03-20T09:36:22;99237.00;;;17.71;43.91
10948;BME280;5526;42.070;24.752;2023-03-20T09:38:50;99233.38;;;18.61;41.22
10948;BME280;5526;42.070;24.752;2023-03-20T09:41:20;99230.13;;;17.83;43.18
10948;BME280;5526;42.070;24.752;2023-03-20T09:44:07;99229.22;;;17.61;43.55
10948;BME280;5526;42.070;24.752;2023-03-20T09:46:57;99223.69;;;17.71;42.75
10948;BME280;5526;42.070;24.752;2023-03-20T09:49:38;99216.81;;;17.97;43.65
10948;BME280;5526;42.070;24.752;2023-03-20T09:52:15;99221.56;;;18.27;42.91
10948;BME280;5526;42.070;24.752;2023-03-20T09:54:48;99212.78;;;17.99;43.60
10948;BME280;5526;42.070;24.752;2023-03-20T09:57:21;99211.69;;;18.27;42.60
10948;BME280;5526;42.070;24.752;2023-03-20T09:59:50;99209.25;;;18.44;42.18
10948;BME280;5526;42.070;24.752;2023-03-20T10:02:34;99200.94;;;18.46;42.52
10948;BME280;5526;42.070;24.752;2023-03-20T10:05:03;99198.13;;;18.64;42.45
10948;BME280;5526;42.070;24.752;2023-03-20T10:07:40;99198.91;;;19.83;39.30
10948;BME280;5526;42.070;24.752;2023-03-20T10:10:12;99201.56;;;19.44;40.46
10948;BME280;5526;42.070;24.752;2023-03-20T10:12:49;99199.16;;;19.65;39.67
10948;BME280;5526;42.070;24.752;2023-03-20T10:15:32;99198.19;;;19.61;39.63
10948;BME280;5526;42.070;24.752;2023-03-20T10:18:06;99187.84;;;19.15;40.73
10948;BME280;5526;42.070;24.752;2023-03-20T10:20:42;99188.16;;;19.14;41.23
10948;BME280;5526;42.070;24.752;2023-03-20T10:23:17;99178.94;;;19.42;40.50
10948;BME280;5526;42.070;24.752;2023-03-20T10:25:50;99184.19;;;19.25;40.12
10948;BME280;5526;42.070;24.752;2023-03-20T10:28:21;99176.75;;;19.22;39.74
10948;BME280;5526;42.070;24.752;2023-03-20T10:30:58;99183.38;;;19.02;41.13
10948;BME280;5526;42.070;24.752;2023-03-20T10:33:39;99175.31;;;19.16;40.92
10948;BME280;5526;42.070;24.752;2023-03-20T10:36:23;99165.72;;;19.15;40.40
10948;BME280;5526;42.070;24.752;2023-03-20T10:38:58;99156.63;;;19.16;41.00
10948;BME280;5526;42.070;24.752;2023-03-20T10:41:32;99156.75;;;19.11;41.30
10948;BME280;5526;42.070;24.752;2023-03-20T10:44:01;99138.22;;;19.28;40.80
10948;BME280;5526;42.070;24.752;2023-03-20T10:46:30;99145.72;;;19.56;40.41
10948;BME280;5526;42.070;24.752;2023-03-20T10:49:00;99138.63;;;19.52;40.32
10948;BME280;5526;42.070;24.752;2023-03-20T10:51:37;99129.28;;;19.32;40.51
10948;BME280;5526;42.070;24.752;2023-03-20T10:54:16;99128.47;;;19.62;39.59
10948;BME280;5526;42.070;24.752;2023-03-20T10:56:48;99125.06;;;19.79;39.85
10948;BME280;5526;42.070;24.752;2023-03-20T10:59:23;99111.28;;;19.46;40.25
10948;BME280;5526;42.070;24.752;2023-03-20T11:01:52;99112.69;;;19.91;39.54
10948;BME280;5526;42.070;24.752;2023-03-20T11:04:19;99107.63;;;19.81;38.95
10948;BME280;5526;42.070;24.752;2023-03-20T11:06:53;99101.03;;;19.87;38.32
10948;BME280;5526;42.070;24.752;2023-03-20T11:09:23;99097.94;;;20.02;39.00
10948;BME280;5526;42.070;24.752;2023-03-20T11:11:57;99096.72;;;20.25;38.40
10948;BME280;5526;42.070;24.752;2023-03-20T11:14:26;99091.00;;;19.93;39.42
10948;BME280;5526;42.070;24.752;2023-03-20T11:17:00;99085.06;;;20.13;38.62
10948;BME280;5526;42.070;24.752;2023-03-20T11:19:32;99071.59;;;20.18;38.47
10948;BME280;5526;42.070;24.752;2023-03-20T11:22:01;99078.50;;;20.53;38.54
10948;BME280;5526;42.070;24.752;2023-03-20T11:24:34;99079.91;;;20.33;38.26
10948;BME280;5526;42.070;24.752;2023-03-20T11:27:09;99076.44;;;20.67;38.96
10948;BME280;5526;42.070;24.752;2023-03-20T11:29:37;99069.97;;;20.85;38.11
10948;BME280;5526;42.070;24.752;2023-03-20T11:32:11;99059.84;;;21.08;38.01
10948;BME280;5526;42.070;24.752;2023-03-20T11:34:40;99050.00;;;21.29;37.89
10948;BME280;5526;42.070;24.752;2023-03-20T11:37:21;99046.94;;;21.47;37.27
10948;BME280;5526;42.070;24.752;2023-03-20T11:39:56;99041.72;;;21.51;36.96
10948;BME280;5526;42.070;24.752;2023-03-20T11:42:26;99036.59;;;21.66;36.94
10948;BME280;5526;42.070;24.752;2023-03-20T11:44:59;99038.00;;;21.72;36.86
10948;BME280;5526;42.070;24.752;2023-03-20T11:47:30;99033.72;;;21.80;36.94
10948;BME280;5526;42.070;24.752;2023-03-20T11:50:00;99025.75;;;21.54;36.92
10948;BME280;5526;42.070;24.752;2023-03-20T11:52:30;99027.44;;;21.38;36.98
10948;BME280;5526;42.070;24.752;2023-03-20T11:54:59;99017.53;;;21.30;37.44
10948;BME280;5526;42.070;24.752;2023-03-20T11:57:32;99015.78;;;21.34;37.66
10948;BME280;5526;42.070;24.752;2023-03-20T12:00:05;99007.28;;;21.61;36.85
10948;BME280;5526;42.070;24.752;2023-03-20T12:02:34;99007.75;;;21.34;37.17
10948;BME280;5526;42.070;24.752;2023-03-20T12:05:17;98999.41;;;21.36;37.19
10948;BME280;5526;42.070;24.752;2023-03-20T12:07:45;99006.53;;;21.61;37.34
10948;BME280;5526;42.070;24.752;2023-03-20T12:10:15;99000.22;;;21.86;36.38
10948;BME280;5526;42.070;24.752;2023-03-20T12:12:49;98994.81;;;21.94;36.02
10948;BME280;5526;42.070;24.752;2023-03-20T12:15:21;99002.50;;;22.16;35.94
10948;BME280;5526;42.070;24.752;2023-03-20T12:17:53;98995.84;;;22.22;35.38
10948;BME280;5526;42.070;24.752;2023-03-20T12:20:34;98982.66;;;22.17;34.78
10948;BME280;5526;42.070;24.752;2023-03-20T12:23:21;98991.47;;;21.97;34.81
10948;BME280;5526;42.070;24.752;2023-03-20T12:25:56;98995.56;;;22.36;34.98
10948;BME280;5526;42.070;24.752;2023-03-20T12:28:31;98992.00;;;22.76;34.61
10948;BME280;5526;42.070;24.752;2023-03-20T12:31:05;98989.69;;;22.99;33.78
10948;BME280;5526;42.070;24.752;2023-03-20T12:33:44;98978.94;;;22.87;34.30
10948;BME280;5526;42.070;24.752;2023-03-20T12:36:17;98980.56;;;22.67;34.20
10948;BME280;5526;42.070;24.752;2023-03-20T12:38:45;98979.69;;;22.75;33.32
10948;BME280;5526;42.070;24.752;2023-03-20T12:41:15;98961.66;;;23.20;32.11
10948;BME280;5526;42.070;24.752;2023-03-20T12:44:14;98970.16;;;22.54;33.28
10948;BME280;5526;42.070;24.752;2023-03-20T12:46:45;98971.53;;;22.39;34.04
10948;BME280;5526;42.070;24.752;2023-03-20T12:49:23;98965.84;;;22.41;33.67
10948;BME280;5526;42.070;24.752;2023-03-20T12:52:05;98969.59;;;22.48;33.40
10948;BME280;5526;42.070;24.752;2023-03-20T12:54:48;98963.72;;;22.46;33.22
10948;BME280;5526;42.070;24.752;2023-03-20T12:57:20;98962.78;;;22.30;33.79
10948;BME280;5526;42.070;24.752;2023-03-20T13:00:10;98957.44;;;22.30;33.63
10948;BME280;5526;42.070;24.752;2023-03-20T13:02:45;98956.09;;;22.36;33.48
10948;BME280;5526;42.070;24.752;2023-03-20T13:05:27;98959.31;;;22.50;32.76
10948;BME280;5526;42.070;24.752;2023-03-20T13:08:10;98954.63;;;22.59;33.73
10948;BME280;5526;42.070;24.752;2023-03-20T13:10:45;98944.94;;;22.67;33.22
10948;BME280;5526;42.070;24.752;2023-03-20T13:13:22;98942.16;;;22.99;32.76
10948;BME280;5526;42.070;24.752;2023-03-20T13:16:04;98940.81;;;23.17;32.16
10948;BME280;5526;42.070;24.752;2023-03-20T13:18:46;98939.72;;;23.30;32.20
10948;BME280;5526;42.070;24.752;2023-03-20T13:21:23;98937.19;;;23.61;32.20
10948;BME280;5526;42.070;24.752;2023-03-20T13:23:56;98936.38;;;23.73;32.01
10948;BME280;5526;42.070;24.752;2023-03-20T13:26:32;98925.03;;;23.91;31.67